Terminal Aerodrome Forecast
Issued by NWS

Home | Current Version | Previous Version | Text Only | Print | Product List | Glossary On
Versions: 1 2 3 4 5 6 7 8 9 10 11 12 13 14 15
185
FTUS44 KTSA 301720
TAFXNA
TAF
KXNA 301720Z 3018/3118 22005KT P6SM SCT027 BKN035
      TEMPO 3018/3022 VRB15G25KT 3SM TSRA BR BKN025CB
     FM302200 21004KT P6SM SCT025 BKN150
     FM310100 VRB03KT P6SM BKN250 PROB30 3106/3112 5SM -TSRA BR
      BKN050CB
     FM311400 20008KT P6SM BKN250=

USA.gov is the U.S. government's official web portal to all federal, state and local government web resources and services.